Hauptseite
METAR-TAF:

METAR-TAF

Flughäfen :

Flughafen Le Havre

Le Havre, Frankreich

Breite: 49-31N, Länge: 000-04E, Höhe: 100 m

Beobachtung

Neuester Wetterbericht von vor 17 Minuten, um 11:00 UTC
Wind 10 kt aus Ost
Temperatur 23°C
Luftfeuchtigkeit 50%
Luftdruck 1017 hPa
Sichtweite 10 km oder mehr
keine Wolken unter 1500 m und keine Kumulonimbus oder Gewitterwolken

METAR: LFOH 191100Z AUTO 09010KT CAVOK 23/12 Q1017 NOSIG

Zeit: 13:17 (11:17 UTC)

Prognose

Neuester Wetterbericht von vor 6 Stunden und 17 Minuten, um 05:00 UTC
Gültige Prognose vom 19 um 06 UTC bis 20 um 06 UTC
Wind 7 kt aus Ost/Nordost
Sichtweite 10 km oder mehr
keine Wolken unter 1500 m und keine Kumulonimbus oder Gewitterwolken

TAF: LFOH 190500Z 1906/2006 07007KT CAVOK

Wetterbeobachtungen und Prognosen von mehr als 4000 Flughäfen (METAR und TAF Bericht).

Die verfügbaren Stationen werden durch gelbe und rote Markierungen auf der Karte dargestellt.

Führen Sie die Maus auf sie, um den Namen der Station zu sehen.

Darauf klicken, um die Beobachtung von Wetterbeobachtungen und Prognosen zu sehen.

Um die Karte zu ändern : klicken Sie auf den grünen Tasten mit einem schwarzen Kreuz Zum Vergrößern, auf den grünen Button mit einem Gedankenstrich zu verkleinern, oder auf die grünen Pfeile für benachbarte Karten.


METAR-TAF: